createdAt,value
2023-09-25T00:00:36.356Z,9.90
2023-09-25T00:03:06.624Z,9.90
2023-09-25T00:05:36.303Z,9.80
2023-09-25T00:08:04.918Z,9.70
2023-09-25T00:10:33.431Z,9.70
2023-09-25T00:13:03.581Z,9.70
2023-09-25T00:15:32.153Z,9.70
2023-09-25T00:18:00.878Z,9.60
2023-09-25T00:20:29.591Z,9.50
2023-09-25T00:22:59.234Z,9.50
2023-09-25T00:25:29.746Z,9.50
2023-09-25T00:27:58.053Z,9.50
2023-09-25T00:30:26.288Z,9.50
2023-09-25T00:32:54.760Z,9.40
2023-09-25T00:35:23.696Z,9.40
2023-09-25T00:37:51.850Z,9.40
2023-09-25T00:40:25.733Z,9.30
2023-09-25T00:42:55.970Z,9.30
2023-09-25T00:45:24.712Z,9.20
2023-09-25T00:47:54.674Z,9.20
2023-09-25T00:50:23.180Z,9.30
2023-09-25T00:52:51.395Z,9.30
2023-09-25T00:55:21.009Z,9.40
2023-09-25T00:57:51.536Z,9.40
2023-09-25T01:00:20.305Z,9.40
2023-09-25T01:02:49.669Z,9.30
2023-09-25T01:05:18.308Z,9.20
2023-09-25T01:07:46.989Z,9.10
2023-09-25T01:10:17.591Z,9.10
2023-09-25T01:12:49.966Z,9.00
2023-09-25T01:15:18.492Z,9.00
2023-09-25T01:17:46.882Z,8.90
2023-09-25T01:20:19.016Z,8.90
2023-09-25T01:22:50.928Z,8.90
2023-09-25T01:25:20.927Z,8.80
2023-09-25T01:27:50.083Z,8.80
2023-09-25T01:30:19.330Z,8.80
2023-09-25T01:32:49.466Z,8.80
2023-09-25T01:35:19.976Z,8.90
2023-09-25T01:37:50.679Z,8.90
2023-09-25T01:40:19.663Z,8.90
2023-09-25T01:42:48.716Z,8.90
2023-09-25T01:45:19.728Z,8.90
2023-09-25T01:47:52.321Z,8.90
2023-09-25T01:50:21.816Z,8.80
2023-09-25T01:52:55.876Z,8.90
2023-09-25T01:55:24.926Z,8.80
2023-09-25T01:57:53.273Z,8.90
2023-09-25T02:00:22.049Z,8.90
2023-09-25T02:02:50.545Z,9.00
2023-09-25T02:05:18.914Z,9.00
2023-09-25T02:07:47.241Z,9.10
2023-09-25T02:10:17.242Z,9.10
2023-09-25T02:12:45.547Z,9.10
2023-09-25T02:15:13.829Z,9.20
2023-09-25T02:17:42.213Z,9.20
2023-09-25T02:20:21.689Z,9.30
2023-09-25T02:22:50.766Z,9.30
2023-09-25T02:25:20.523Z,9.40
2023-09-25T02:27:48.912Z,9.40
2023-09-25T02:30:17.662Z,9.40
2023-09-25T02:32:46.873Z,9.40
2023-09-25T02:35:15.481Z,9.40
2023-09-25T02:37:45.778Z,9.40
2023-09-25T02:40:15.160Z,9.40
2023-09-25T02:42:46.509Z,9.40
2023-09-25T02:45:15.173Z,9.50
2023-09-25T02:47:43.578Z,9.50
2023-09-25T02:50:12.584Z,9.60
2023-09-25T02:52:40.701Z,9.60
2023-09-25T02:55:10.801Z,9.60
2023-09-25T02:57:39.168Z,9.60
2023-09-25T03:00:12.771Z,9.60
2023-09-25T03:02:42.112Z,9.70
2023-09-25T03:05:11.294Z,9.70
2023-09-25T03:07:40.063Z,9.60
2023-09-25T03:10:09.351Z,9.60
2023-09-25T03:12:37.677Z,9.60
2023-09-25T03:15:08.598Z,9.60
2023-09-25T03:17:37.566Z,9.70
2023-09-25T03:20:11.138Z,9.80
2023-09-25T03:22:39.402Z,9.80
2023-09-25T03:25:08.381Z,9.80
2023-09-25T03:27:36.545Z,9.90
2023-09-25T03:30:06.412Z,10.10
2023-09-25T03:32:36.119Z,10.20
2023-09-25T03:35:05.273Z,10.20
2023-09-25T03:37:33.644Z,10.20
2023-09-25T03:40:01.799Z,10.20
2023-09-25T03:42:30.073Z,10.10
2023-09-25T03:44:59.041Z,10.10
2023-09-25T03:47:27.371Z,10.10
2023-09-25T03:49:57.325Z,10.30
2023-09-25T03:52:25.880Z,10.30
2023-09-25T03:54:54.009Z,10.40
2023-09-25T03:57:22.683Z,10.50
2023-09-25T03:59:51.646Z,10.60
2023-09-25T04:02:19.958Z,10.70
2023-09-25T04:04:48.379Z,10.70
2023-09-25T04:07:18.018Z,10.80
2023-09-25T04:09:46.165Z,10.80
2023-09-25T04:12:15.859Z,10.90
2023-09-25T04:14:44.271Z,10.90
2023-09-25T04:17:12.414Z,11.00
2023-09-25T04:19:40.737Z,11.00
2023-09-25T04:22:09.128Z,11.00
2023-09-25T04:24:40.236Z,11.00
2023-09-25T04:27:10.941Z,11.10
2023-09-25T04:29:40.259Z,11.10
2023-09-25T04:32:08.456Z,11.00
2023-09-25T04:34:37.073Z,11.00
2023-09-25T04:37:06.569Z,11.10
2023-09-25T04:39:35.025Z,11.00
2023-09-25T04:42:04.838Z,11.10
2023-09-25T04:44:32.990Z,11.10
2023-09-25T04:47:01.114Z,11.10
2023-09-25T04:49:29.415Z,11.20
2023-09-25T04:51:57.594Z,11.20
2023-09-25T04:54:25.822Z,11.20
2023-09-25T04:56:54.118Z,11.20
2023-09-25T04:59:23.721Z,11.20
2023-09-25T05:01:52.060Z,11.30
2023-09-25T05:04:20.593Z,11.30
2023-09-25T05:06:49.140Z,11.30
2023-09-25T05:09:17.468Z,11.30
2023-09-25T05:11:45.754Z,11.30
2023-09-25T05:14:13.891Z,11.40
2023-09-25T05:16:43.636Z,11.40
2023-09-25T05:19:11.992Z,11.50
2023-09-25T05:21:40.227Z,11.50
2023-09-25T05:24:08.935Z,11.50
2023-09-25T05:26:38.176Z,11.50
2023-09-25T05:29:06.690Z,11.50
2023-09-25T05:31:35.103Z,11.50
2023-09-25T05:34:04.987Z,11.60
2023-09-25T05:36:33.183Z,11.50
2023-09-25T05:39:01.343Z,11.60
2023-09-25T05:41:30.249Z,11.50
2023-09-25T05:43:58.453Z,11.60
2023-09-25T05:46:28.247Z,11.60
2023-09-25T05:48:59.324Z,11.60
2023-09-25T05:51:29.025Z,11.60
2023-09-25T05:53:57.611Z,11.60
2023-09-25T05:56:25.818Z,11.70
2023-09-25T05:58:55.451Z,11.70
2023-09-25T06:01:23.827Z,11.80
2023-09-25T06:03:52.717Z,11.80
2023-09-25T06:06:21.481Z,11.90
2023-09-25T06:08:51.270Z,11.90
2023-09-25T06:11:19.587Z,11.90
2023-09-25T06:13:47.844Z,12.00
2023-09-25T06:16:17.251Z,12.10
2023-09-25T06:18:46.253Z,12.10
2023-09-25T06:21:15.230Z,12.10
2023-09-25T06:23:44.085Z,12.20
2023-09-25T06:26:14.297Z,12.20
2023-09-25T06:28:44.190Z,12.20
2023-09-25T06:31:13.553Z,12.30
2023-09-25T06:33:41.876Z,12.30
2023-09-25T06:36:10.175Z,12.30
2023-09-25T06:38:38.322Z,12.40
2023-09-25T06:41:06.442Z,12.40
2023-09-25T06:43:35.999Z,12.50
2023-09-25T06:46:04.734Z,12.60
2023-09-25T06:48:33.480Z,12.60
2023-09-25T06:51:02.277Z,12.70
2023-09-25T06:53:30.691Z,12.80
2023-09-25T06:55:59.555Z,12.90
2023-09-25T06:58:28.231Z,13.00
2023-09-25T07:00:58.408Z,13.10
2023-09-25T07:03:27.739Z,13.20
2023-09-25T07:05:57.310Z,13.30
2023-09-25T07:08:27.449Z,13.40
2023-09-25T07:10:56.326Z,13.50
2023-09-25T07:13:24.986Z,13.50
2023-09-25T07:15:53.751Z,13.60
2023-09-25T07:18:24.097Z,13.70
2023-09-25T07:20:55.896Z,13.70
2023-09-25T07:23:24.471Z,13.90
2023-09-25T07:26:00.519Z,13.90
2023-09-25T07:28:28.696Z,14.00
2023-09-25T07:30:57.052Z,14.10
2023-09-25T07:33:26.746Z,14.20
2023-09-25T07:35:56.248Z,14.30
2023-09-25T07:38:24.832Z,14.40
2023-09-25T07:41:01.016Z,14.40
2023-09-25T07:46:04.208Z,14.60
2023-09-25T07:48:38.961Z,14.70
2023-09-25T07:51:08.513Z,14.80
2023-09-25T07:53:40.957Z,14.90
2023-09-25T07:56:09.382Z,15.00
2023-09-25T07:58:41.138Z,15.00
2023-09-25T08:01:10.210Z,15.10
2023-09-25T08:03:41.067Z,15.10
2023-09-25T08:06:12.854Z,15.10
2023-09-25T08:08:41.561Z,15.20
2023-09-25T08:11:09.884Z,15.40
2023-09-25T08:13:38.043Z,15.50
2023-09-25T08:16:07.715Z,15.70
2023-09-25T08:18:36.336Z,15.70
2023-09-25T08:21:06.797Z,15.80
2023-09-25T08:23:35.115Z,15.80
2023-09-25T08:26:06.655Z,16.00
2023-09-25T08:28:35.550Z,16.20
2023-09-25T08:31:04.278Z,16.20
2023-09-25T08:33:32.530Z,16.30
2023-09-25T08:36:00.809Z,16.40
2023-09-25T08:38:30.744Z,16.60
2023-09-25T08:40:59.500Z,16.60
2023-09-25T08:43:29.178Z,16.60
2023-09-25T08:45:59.019Z,16.60
2023-09-25T08:48:27.452Z,16.40
2023-09-25T08:50:55.986Z,16.30
2023-09-25T08:53:24.311Z,16.40
2023-09-25T08:55:54.688Z,16.50
2023-09-25T08:58:22.937Z,16.60
2023-09-25T09:00:51.302Z,16.60
2023-09-25T09:03:19.655Z,16.70
2023-09-25T09:05:49.135Z,16.80
2023-09-25T09:08:19.328Z,16.80
2023-09-25T09:10:47.907Z,17.00
2023-09-25T09:13:23.745Z,17.30
2023-09-25T09:15:52.424Z,17.60
2023-09-25T09:18:26.550Z,18.00
2023-09-25T09:20:57.385Z,18.00
2023-09-25T09:23:41.368Z,18.00
2023-09-25T09:26:10.348Z,18.00
2023-09-25T09:28:40.764Z,17.90
2023-09-25T09:31:09.209Z,18.10
2023-09-25T09:33:42.832Z,18.20
2023-09-25T09:36:12.160Z,17.90
2023-09-25T09:38:41.652Z,17.70
2023-09-25T09:41:10.307Z,17.70
2023-09-25T09:43:40.112Z,17.60
2023-09-25T09:46:12.541Z,17.70
2023-09-25T09:48:41.694Z,17.70
2023-09-25T09:51:13.974Z,17.90
2023-09-25T09:53:42.364Z,18.20
2023-09-25T09:56:12.779Z,18.40
2023-09-25T09:58:43.090Z,18.60
2023-09-25T10:01:11.542Z,18.70
2023-09-25T10:03:40.202Z,18.90
2023-09-25T10:06:08.652Z,18.90
2023-09-25T10:08:37.043Z,19.10
2023-09-25T10:11:24.516Z,19.00
2023-09-25T10:13:57.055Z,18.90
2023-09-25T10:16:25.736Z,19.00
2023-09-25T10:18:55.013Z,19.00
2023-09-25T10:21:23.309Z,19.30
2023-09-25T10:23:55.442Z,19.20
2023-09-25T10:26:26.462Z,19.30
2023-09-25T10:29:12.626Z,20.30
2023-09-25T10:31:44.006Z,21.10
2023-09-25T10:34:12.607Z,21.30
2023-09-25T10:36:43.051Z,20.70
2023-09-25T10:39:14.474Z,20.30
2023-09-25T10:41:43.084Z,19.80
2023-09-25T10:44:13.366Z,19.30
2023-09-25T10:46:41.958Z,18.90
2023-09-25T10:49:10.810Z,18.60
2023-09-25T10:51:39.168Z,18.50
2023-09-25T10:54:07.820Z,18.60
2023-09-25T10:56:36.393Z,18.60
2023-09-25T10:59:05.316Z,18.40
2023-09-25T11:01:36.511Z,18.50
2023-09-25T11:04:05.423Z,18.30
2023-09-25T11:06:33.987Z,18.30
2023-09-25T11:09:11.762Z,18.00
2023-09-25T11:11:41.964Z,18.10
2023-09-25T11:14:10.607Z,18.10
2023-09-25T11:16:40.817Z,18.10
2023-09-25T11:19:13.042Z,17.90
2023-09-25T11:21:42.884Z,18.00
2023-09-25T11:24:12.724Z,18.00
2023-09-25T11:26:43.006Z,17.90
2023-09-25T11:29:12.153Z,17.90
2023-09-25T11:32:01.175Z,17.80
2023-09-25T11:34:30.783Z,17.90
2023-09-25T11:36:59.333Z,17.90
2023-09-25T11:39:27.846Z,18.00
2023-09-25T11:41:56.292Z,17.90
2023-09-25T11:44:24.452Z,17.90
2023-09-25T11:46:55.535Z,17.70
2023-09-25T11:49:23.849Z,17.60
2023-09-25T11:51:51.958Z,17.50
2023-09-25T11:54:20.124Z,17.60
2023-09-25T11:56:49.987Z,17.50
2023-09-25T11:59:20.111Z,17.50
2023-09-25T12:01:51.838Z,17.30
2023-09-25T12:04:22.154Z,17.30
2023-09-25T12:06:52.573Z,17.30
2023-09-25T12:09:21.317Z,17.20
2023-09-25T12:11:49.521Z,17.10
2023-09-25T12:14:20.773Z,17.00
2023-09-25T12:16:49.206Z,17.00
2023-09-25T12:19:17.864Z,17.00
2023-09-25T12:21:47.466Z,16.90
2023-09-25T12:24:18.639Z,16.90
2023-09-25T12:26:47.104Z,16.90
2023-09-25T12:29:15.271Z,16.80
2023-09-25T12:31:44.133Z,16.80
2023-09-25T12:34:12.516Z,16.70
2023-09-25T12:36:40.786Z,16.60
2023-09-25T12:39:15.086Z,16.50
2023-09-25T12:41:43.377Z,16.50
2023-09-25T12:44:12.018Z,16.40
2023-09-25T12:46:40.260Z,16.40
2023-09-25T12:49:08.613Z,16.40
2023-09-25T12:51:36.912Z,16.40
2023-09-25T12:54:05.713Z,16.50
2023-09-25T12:56:35.763Z,16.40
2023-09-25T12:59:04.061Z,16.40
2023-09-25T13:01:32.242Z,16.40
2023-09-25T13:04:00.607Z,16.40
2023-09-25T13:06:29.249Z,16.40
2023-09-25T13:08:57.471Z,16.40
2023-09-25T13:11:25.672Z,16.40
2023-09-25T13:13:55.709Z,16.20
2023-09-25T13:16:23.887Z,16.20
2023-09-25T13:18:52.583Z,16.20
2023-09-25T13:21:20.753Z,16.10
2023-09-25T13:23:49.489Z,16.20
2023-09-25T13:26:17.913Z,16.10
2023-09-25T13:28:46.073Z,16.10
2023-09-25T13:31:15.660Z,16.00
2023-09-25T13:33:44.217Z,16.00
2023-09-25T13:36:12.801Z,16.10
2023-09-25T13:38:40.981Z,16.00
2023-09-25T13:41:11.241Z,16.00
2023-09-25T13:43:42.036Z,16.00
2023-09-25T13:46:11.200Z,16.00
2023-09-25T13:48:40.850Z,16.00
2023-09-25T13:51:09.148Z,16.00
2023-09-25T13:53:38.937Z,15.90
2023-09-25T13:56:07.630Z,15.90
2023-09-25T13:58:36.009Z,15.90
2023-09-25T14:01:06.877Z,15.90
2023-09-25T14:03:35.177Z,15.80
2023-09-25T14:06:09.199Z,15.80
2023-09-25T14:08:37.862Z,15.80
2023-09-25T14:11:07.727Z,15.80
2023-09-25T14:13:36.240Z,15.80
2023-09-25T14:16:07.234Z,15.70
2023-09-25T14:18:36.054Z,15.70
2023-09-25T14:21:04.285Z,15.70
2023-09-25T14:23:34.060Z,15.70
2023-09-25T14:26:02.258Z,15.70
2023-09-25T14:28:31.261Z,15.70
2023-09-25T14:31:00.273Z,15.70
2023-09-25T14:33:28.963Z,15.70
2023-09-25T14:35:57.134Z,15.70
2023-09-25T14:38:25.299Z,15.70
2023-09-25T14:40:55.331Z,15.60
2023-09-25T14:43:23.657Z,15.70
2023-09-25T14:45:51.882Z,15.70
2023-09-25T14:48:20.807Z,15.70
2023-09-25T14:50:48.945Z,15.70
2023-09-25T14:53:17.111Z,15.60
2023-09-25T14:55:56.220Z,15.60
2023-09-25T14:58:28.013Z,15.60
2023-09-25T15:00:59.874Z,15.60
2023-09-25T15:03:29.386Z,15.60
2023-09-25T15:05:57.719Z,15.60
2023-09-25T15:08:26.888Z,15.60
2023-09-25T15:10:56.311Z,15.60
2023-09-25T15:13:24.870Z,15.60
2023-09-25T15:15:54.914Z,15.60
2023-09-25T15:18:23.087Z,15.60
2023-09-25T15:20:51.221Z,15.50
2023-09-25T15:23:19.888Z,15.50
2023-09-25T15:25:48.112Z,15.50
2023-09-25T15:28:16.264Z,15.50
2023-09-25T15:30:44.739Z,15.50
2023-09-25T15:33:14.296Z,15.50
2023-09-25T15:35:42.470Z,15.50
2023-09-25T15:38:10.992Z,15.40
2023-09-25T15:40:40.438Z,15.50
2023-09-25T15:43:08.741Z,15.40
2023-09-25T15:45:37.745Z,15.40
2023-09-25T15:48:06.759Z,15.40
2023-09-25T15:50:36.326Z,15.40
2023-09-25T15:53:04.716Z,15.40
2023-09-25T15:55:32.890Z,15.40
2023-09-25T15:58:01.054Z,15.40
2023-09-25T16:00:30.622Z,15.40
2023-09-25T16:02:58.799Z,15.40
2023-09-25T16:05:26.986Z,15.40
2023-09-25T16:07:56.594Z,15.40
2023-09-25T16:10:24.788Z,15.40
2023-09-25T16:12:52.993Z,15.30
2023-09-25T16:15:21.382Z,15.30
2023-09-25T16:17:49.568Z,15.30
2023-09-25T16:20:17.909Z,15.40
2023-09-25T16:22:46.476Z,15.30
2023-09-25T16:25:16.219Z,15.30
2023-09-25T16:27:45.225Z,15.30
2023-09-25T16:30:13.928Z,15.30
2023-09-25T16:32:42.194Z,15.30
2023-09-25T16:35:10.694Z,15.20
2023-09-25T16:37:38.908Z,15.20
2023-09-25T16:40:08.617Z,15.30
2023-09-25T16:42:38.304Z,15.30
2023-09-25T16:45:07.715Z,15.30
2023-09-25T16:47:35.931Z,15.30
2023-09-25T16:50:05.447Z,15.30
2023-09-25T16:52:33.683Z,15.20
2023-09-25T16:55:02.057Z,15.20
2023-09-25T16:57:30.909Z,15.20
2023-09-25T17:00:01.226Z,15.20
2023-09-25T17:02:30.215Z,15.20
2023-09-25T17:04:58.413Z,15.20
2023-09-25T17:07:27.078Z,15.20
2023-09-25T17:09:55.400Z,15.10
2023-09-25T17:12:23.527Z,15.20
2023-09-25T17:14:55.771Z,15.10
2023-09-25T17:17:25.403Z,15.10
2023-09-25T17:19:53.721Z,15.10
2023-09-25T17:22:22.308Z,15.10
2023-09-25T17:24:50.509Z,15.10
2023-09-25T17:27:19.090Z,15.00
2023-09-25T17:29:47.798Z,15.10
2023-09-25T17:32:16.053Z,15.10
2023-09-25T17:34:48.510Z,15.10
2023-09-25T17:37:16.677Z,15.00
2023-09-25T17:39:44.921Z,15.10
2023-09-25T17:42:13.106Z,15.00
2023-09-25T17:44:41.280Z,15.00
2023-09-25T17:47:09.959Z,15.00
2023-09-25T17:49:38.214Z,15.00
2023-09-25T17:52:21.658Z,14.90
2023-09-25T17:54:52.346Z,14.90
2023-09-25T17:57:21.461Z,14.90
2023-09-25T17:59:49.726Z,14.80
2023-09-25T18:02:18.928Z,14.80
2023-09-25T18:04:47.536Z,14.80
2023-09-25T18:07:17.299Z,14.70
2023-09-25T18:09:46.267Z,14.70
2023-09-25T18:12:14.446Z,14.70
2023-09-25T18:14:42.578Z,14.70
2023-09-25T18:17:11.222Z,14.70
2023-09-25T18:19:39.425Z,14.70
2023-09-25T18:22:07.560Z,14.70
2023-09-25T18:24:37.968Z,14.70
2023-09-25T18:27:06.507Z,14.70
2023-09-25T18:29:36.539Z,14.70
2023-09-25T18:32:05.963Z,14.60
2023-09-25T18:34:36.706Z,14.60
2023-09-25T18:37:05.001Z,14.60
2023-09-25T18:39:33.667Z,14.60
2023-09-25T18:42:03.219Z,14.60
2023-09-25T18:44:31.464Z,14.60
2023-09-25T18:47:00.025Z,14.60
2023-09-25T18:49:28.253Z,14.60
2023-09-25T18:51:56.493Z,14.60
2023-09-25T18:54:24.688Z,14.60
2023-09-25T18:56:54.124Z,14.60
2023-09-25T18:59:23.743Z,14.70
2023-09-25T19:01:52.662Z,14.70
2023-09-25T19:04:20.912Z,14.60
2023-09-25T19:06:49.116Z,14.70
2023-09-25T19:09:17.418Z,14.70
2023-09-25T19:11:45.736Z,14.70
2023-09-25T19:14:13.938Z,14.70
2023-09-25T19:16:44.160Z,14.60
2023-09-25T19:19:12.410Z,14.60
2023-09-25T19:21:40.689Z,14.60
2023-09-25T19:24:09.649Z,14.60
2023-09-25T19:26:37.906Z,14.60
2023-09-25T19:29:06.144Z,14.60
2023-09-25T19:31:40.031Z,14.60
2023-09-25T19:34:13.429Z,14.60
2023-09-25T19:36:42.608Z,14.50
2023-09-25T19:39:10.858Z,14.50
2023-09-25T19:41:39.131Z,14.50
2023-09-25T19:44:08.264Z,14.50
2023-09-25T19:46:37.462Z,14.50
2023-09-25T19:49:06.441Z,14.50
2023-09-25T19:51:39.407Z,14.40
2023-09-25T19:54:08.483Z,14.40
2023-09-25T19:56:36.804Z,14.40
2023-09-25T19:59:04.984Z,14.40
2023-09-25T20:01:33.294Z,14.40
2023-09-25T20:04:02.148Z,14.40
2023-09-25T20:06:30.432Z,14.30
2023-09-25T20:09:00.012Z,14.40
2023-09-25T20:11:28.640Z,14.40
2023-09-25T20:13:57.867Z,14.30
2023-09-25T20:16:26.275Z,14.30
2023-09-25T20:18:55.397Z,14.30
2023-09-25T20:21:26.760Z,14.30
2023-09-25T20:23:55.442Z,14.20
2023-09-25T20:26:25.183Z,14.20
2023-09-25T20:28:53.452Z,14.30
2023-09-25T20:31:21.703Z,14.30
2023-09-25T20:33:50.622Z,14.30
2023-09-25T20:36:19.401Z,14.20
2023-09-25T20:38:47.557Z,14.10
2023-09-25T20:41:15.731Z,14.20
2023-09-25T20:43:45.260Z,14.20
2023-09-25T20:46:14.079Z,14.20
2023-09-25T20:48:43.035Z,14.20
2023-09-25T20:51:15.074Z,14.20
2023-09-25T20:53:44.641Z,14.10
2023-09-25T20:56:12.818Z,14.10
2023-09-25T20:58:41.057Z,14.10
2023-09-25T21:01:10.967Z,14.20
2023-09-25T21:03:39.256Z,14.10
2023-09-25T21:06:09.264Z,14.20
2023-09-25T21:08:37.650Z,14.20
2023-09-25T21:11:05.845Z,14.10
2023-09-25T21:13:35.232Z,14.10
2023-09-25T21:16:04.382Z,14.10
2023-09-25T21:18:34.074Z,14.10
2023-09-25T21:21:02.264Z,14.10
2023-09-25T21:23:30.906Z,14.10
2023-09-25T21:25:59.292Z,14.10
2023-09-25T21:28:27.520Z,14.10
2023-09-25T21:30:56.080Z,14.00
2023-09-25T21:33:24.236Z,14.00
2023-09-25T21:35:53.769Z,13.90
2023-09-25T21:38:22.381Z,14.00
2023-09-25T21:40:50.542Z,14.00
2023-09-25T21:43:18.729Z,14.00
2023-09-25T21:45:47.421Z,14.10
2023-09-25T21:48:15.677Z,14.10
2023-09-25T21:50:43.816Z,14.00
2023-09-25T21:53:13.447Z,14.00
2023-09-25T21:55:41.608Z,14.00
2023-09-25T21:58:09.780Z,14.00
2023-09-25T22:00:38.103Z,14.00
2023-09-25T22:03:07.007Z,14.00
2023-09-25T22:05:35.339Z,14.00
2023-09-25T22:08:03.717Z,14.00
2023-09-25T22:10:33.806Z,14.00
2023-09-25T22:13:02.966Z,14.00
2023-09-25T22:15:32.409Z,14.00
2023-09-25T22:18:00.644Z,14.00
2023-09-25T22:20:28.777Z,14.10
2023-09-25T22:22:58.382Z,14.10
2023-09-25T22:25:26.656Z,14.10
2023-09-25T22:27:56.680Z,14.10
2023-09-25T22:30:25.135Z,14.10
2023-09-25T22:32:53.315Z,14.10
2023-09-25T22:35:21.574Z,14.10
2023-09-25T22:38:06.493Z,14.10
2023-09-25T22:40:36.791Z,14.10
2023-09-25T22:43:07.715Z,14.10
2023-09-25T22:45:36.494Z,14.10
2023-09-25T22:48:05.737Z,14.00
2023-09-25T22:50:34.142Z,14.10
2023-09-25T22:53:02.298Z,14.10
2023-09-25T22:55:30.448Z,14.00
2023-09-25T22:57:59.015Z,14.00
2023-09-25T23:00:28.612Z,14.10
2023-09-25T23:02:58.616Z,14.00
2023-09-25T23:05:27.517Z,14.00
2023-09-25T23:07:56.071Z,14.00
2023-09-25T23:10:24.589Z,14.00
2023-09-25T23:12:53.186Z,14.00
2023-09-25T23:15:21.354Z,14.00
2023-09-25T23:17:50.890Z,14.00
2023-09-25T23:20:22.339Z,14.00
2023-09-25T23:22:52.321Z,14.00
2023-09-25T23:25:23.154Z,13.90
2023-09-25T23:27:52.225Z,13.80
2023-09-25T23:30:23.125Z,13.80
2023-09-25T23:32:53.852Z,13.80
2023-09-25T23:35:22.141Z,13.70
2023-09-25T23:37:50.689Z,13.70
2023-09-25T23:40:22.080Z,13.70
2023-09-25T23:42:51.176Z,13.60
2023-09-25T23:45:19.387Z,13.60
2023-09-25T23:47:49.515Z,13.60
2023-09-25T23:50:20.188Z,13.50
2023-09-25T23:52:49.304Z,13.50
2023-09-25T23:55:17.847Z,13.50
2023-09-25T23:57:46.006Z,13.40
